Time;durP1;ratioP1;P1;durP2;ratioP2;P2;SDS_P1;SDS_P2;PMS_P1;PMS_P2;Temp;Humidity;BMP_temperature;BMP_pressure;BME280_temperature;BME280_humidity;BME280_pressure;Samples;Min_cycle;Max_cycle;Signal;HPM_P1;HPM_P2
2023/03/09 00:01:46;;;;;;;15.73;10.15;;;;;;;-0.49;100.00;98584.63;4995903;28;20045;-76
2023/03/09 00:04:15;;;;;;;19.20;10.18;;;;;;;-0.52;100.00;98579.50;4988036;28;20038;-76
2023/03/09 00:06:42;;;;;;;16.90;9.07;;;;;;;-0.55;100.00;98576.91;4993005;28;20069;-77
2023/03/09 00:09:09;;;;;;;14.85;8.63;;;;;;;-0.58;100.00;98574.34;4991237;28;20038;-78
2023/03/09 00:11:37;;;;;;;16.92;10.13;;;;;;;-0.59;100.00;98578.59;4992706;28;20037;-76
2023/03/09 00:14:03;;;;;;;14.60;8.95;;;;;;;-0.60;100.00;98578.59;5006332;28;20039;-78
2023/03/09 00:16:30;;;;;;;16.48;9.13;;;;;;;-0.60;100.00;98594.91;4994082;28;20042;-83
2023/03/09 00:18:58;;;;;;;17.33;10.20;;;;;;;-0.60;100.00;98576.91;5004248;28;20097;-76
2023/03/09 00:21:38;;;;;;;16.83;9.73;;;;;;;-0.62;100.00;98572.63;4993671;28;20480;-78
2023/03/09 00:24:13;;;;;;;13.18;10.27;;;;;;;-0.64;100.00;98585.44;4992827;28;20046;-78
2023/03/09 00:26:44;;;;;;;14.70;9.25;;;;;;;-0.67;100.00;98588.84;4989864;28;20038;-75
2023/03/09 00:29:13;;;;;;;17.90;10.73;;;;;;;-0.69;100.00;98588.00;4993668;28;20114;-75
2023/03/09 00:31:41;;;;;;;13.27;8.27;;;;;;;-0.69;100.00;98569.19;5004808;28;20046;-76
2023/03/09 00:34:09;;;;;;;15.20;9.73;;;;;;;-0.68;100.00;98565.72;4990653;28;20555;-76
2023/03/09 00:36:38;;;;;;;12.45;8.02;;;;;;;-0.69;100.00;98556.34;4978303;28;20046;-76
2023/03/09 00:39:05;;;;;;;14.82;8.60;;;;;;;-0.71;100.00;98558.03;4982270;28;20644;-76
2023/03/09 00:41:32;;;;;;;14.82;9.15;;;;;;;-0.71;100.00;98568.31;4991942;28;20038;-76
2023/03/09 00:44:00;;;;;;;12.02;8.50;;;;;;;-0.73;100.00;98573.44;4970974;28;20497;-79
2023/03/09 00:46:28;;;;;;;14.43;8.27;;;;;;;-0.72;100.00;98566.59;4994226;28;20038;-77
2023/03/09 00:48:54;;;;;;;14.63;8.43;;;;;;;-0.75;100.00;98552.00;5004583;28;20034;-78
2023/03/09 00:51:21;;;;;;;13.82;9.38;;;;;;;-0.75;100.00;98553.75;4976952;28;20046;-79
2023/03/09 00:53:49;;;;;;;12.82;7.85;;;;;;;-0.75;100.00;98549.44;4990770;28;20056;-81
2023/03/09 00:56:19;;;;;;;12.98;8.02;;;;;;;-0.74;100.00;98571.72;5010236;28;20045;-77
2023/03/09 00:58:47;;;;;;;16.33;9.48;;;;;;;-0.75;100.00;98551.16;5008353;28;20046;-76
2023/03/09 01:01:16;;;;;;;14.38;8.52;;;;;;;-0.78;100.00;98533.16;4989759;28;20704;-76
2023/03/09 01:03:43;;;;;;;14.85;8.45;;;;;;;-0.79;100.00;98532.31;4990464;28;20053;-76
2023/03/09 01:06:10;;;;;;;14.70;8.48;;;;;;;-0.80;100.00;98528.03;4995937;28;20102;-76
2023/03/09 01:08:37;;;;;;;11.63;8.50;;;;;;;-0.80;100.00;98519.47;4972704;28;20484;-81
2023/03/09 01:11:12;;;;;;;13.63;7.80;;;;;;;-0.82;100.00;98522.03;4998328;28;20050;-77
2023/03/09 01:13:39;;;;;;;14.23;9.40;;;;;;;-0.84;100.00;98523.75;4992250;28;20172;-76
2023/03/09 01:16:06;;;;;;;15.60;8.88;;;;;;;-0.86;100.00;98510.91;4992584;28;20150;-89
2023/03/09 01:18:33;;;;;;;15.00;8.00;;;;;;;-0.85;100.00;98510.06;4977825;28;20421;-82
2023/03/09 01:21:01;;;;;;;13.38;8.95;;;;;;;-0.84;100.00;98504.03;4991650;28;20049;-77
2023/03/09 01:23:28;;;;;;;12.43;8.65;;;;;;;-0.85;100.00;98501.47;4992994;28;20053;-76
2023/03/09 01:25:55;;;;;;;13.38;8.55;;;;;;;-0.85;100.00;98506.59;4994221;28;20052;-77
2023/03/09 01:28:22;;;;;;;15.05;8.88;;;;;;;-0.87;100.00;98509.19;4990789;28;20052;-78
2023/03/09 01:30:48;;;;;;;16.73;9.50;;;;;;;-0.86;100.00;98516.03;5006605;28;20448;-79
2023/03/09 01:33:15;;;;;;;15.95;8.93;;;;;;;-0.85;100.00;98515.19;5007249;28;20050;-76
2023/03/09 01:35:41;;;;;;;15.13;8.48;;;;;;;-0.86;100.00;98508.31;5006485;28;20207;-78
2023/03/09 01:38:09;;;;;;;18.30;10.10;;;;;;;-0.85;100.00;98504.03;4987879;28;20048;-82
2023/03/09 01:40:35;;;;;;;19.33;9.18;;;;;;;-0.86;100.00;98504.88;5004364;28;20084;-81
2023/03/09 01:43:40;;;;;;;13.57;8.15;;;;;;;-0.85;100.00;98504.91;4985170;28;20053;-85
2023/03/09 01:46:25;;;;;;;12.38;8.10;;;;;;;-0.84;100.00;98501.47;4988317;28;20508;-80
2023/03/09 01:49:00;;;;;;;14.75;8.32;;;;;;;-0.82;100.00;98504.06;5005878;28;20058;-82
2023/03/09 01:52:05;;;;;;;14.73;9.35;;;;;;;-0.81;100.00;98510.03;4988902;28;20034;-80
2023/03/09 01:54:53;;;;;;;15.32;9.45;;;;;;;-0.81;100.00;98499.78;4985881;28;20053;-88
2023/03/09 01:57:48;;;;;;;14.25;8.15;;;;;;;-0.82;100.00;98501.50;4978196;28;20072;-79
2023/03/09 02:00:41;;;;;;;17.50;10.10;;;;;;;-0.84;100.00;98504.03;4984396;28;20115;-76
2023/03/09 02:03:20;;;;;;;15.95;8.88;;;;;;;-0.85;100.00;98502.34;4993758;28;20038;-77
2023/03/09 02:06:33;;;;;;;14.98;8.57;;;;;;;-0.85;100.00;98504.03;4991302;28;20046;-78
2023/03/09 02:09:49;;;;;;;15.10;8.90;;;;;;;-0.85;100.00;98499.78;5001618;28;20049;-78
2023/03/09 02:12:33;;;;;;;15.32;8.82;;;;;;;-0.84;100.00;98509.16;4994130;28;20049;-76
2023/03/09 02:15:30;;;;;;;17.75;9.63;;;;;;;-0.85;100.00;98525.47;4994311;28;20057;-76
2023/03/09 02:18:09;;;;;;;16.30;9.45;;;;;;;-0.86;100.00;98523.75;4999310;28;20038;-81
2023/03/09 02:21:35;;;;;;;14.82;8.70;;;;;;;-0.84;100.00;98529.72;4992178;28;20073;-78
2023/03/09 02:24:28;;;;;;;15.13;9.10;;;;;;;-0.86;100.00;98525.44;5011125;28;20040;-78
2023/03/09 02:29:32;;;;;;;11.20;7.40;;;;;;;-0.90;100.00;98536.56;5036526;23;20061;-78
2023/03/09 02:31:58;;;;;;;14.50;9.40;;;;;;;-0.91;100.00;98532.25;5008684;28;20049;-76
2023/03/09 02:34:25;;;;;;;14.30;9.10;;;;;;;-0.91;100.00;98529.69;4992609;28;20478;-75
2023/03/09 02:36:51;;;;;;;12.75;7.88;;;;;;;-0.96;100.00;98523.72;4993540;28;20045;-75
2023/03/09 02:39:40;;;;;;;13.93;7.32;;;;;;;-0.96;100.00;98524.56;4992506;28;20077;-76
2023/03/09 02:42:07;;;;;;;10.77;7.45;;;;;;;-0.99;100.00;98529.69;4990928;28;20416;-81
2023/03/09 02:44:34;;;;;;;13.32;9.25;;;;;;;-0.98;100.00;98530.53;4993769;28;20048;-77
2023/03/09 02:47:02;;;;;;;12.80;7.65;;;;;;;-1.01;100.00;98518.56;4991265;28;20054;-77
2023/03/09 02:49:29;;;;;;;14.15;8.35;;;;;;;-1.04;100.00;98510.84;4975264;28;20092;-80
2023/03/09 02:51:55;;;;;;;12.57;8.05;;;;;;;-1.05;100.00;98520.25;4997972;28;20716;-78
2023/03/09 02:54:22;;;;;;;14.05;7.75;;;;;;;-1.09;100.00;98515.97;4994744;28;20052;-78
2023/03/09 02:56:49;;;;;;;12.65;7.85;;;;;;;-1.09;100.00;98512.53;5010315;28;20056;-79
2023/03/09 02:59:15;;;;;;;14.90;8.25;;;;;;;-1.09;100.00;98515.97;4990676;28;20460;-83
2023/03/09 03:01:45;;;;;;;10.98;7.15;;;;;;;-1.09;100.00;98517.69;4993707;28;20053;-84
2023/03/09 03:04:12;;;;;;;14.93;8.45;;;;;;;-1.10;100.00;98515.97;4994807;28;20038;-78
2023/03/09 03:06:39;;;;;;;14.15;8.52;;;;;;;-1.10;100.00;98500.56;4977303;28;20053;-76
2023/03/09 03:09:06;;;;;;;13.68;8.07;;;;;;;-1.11;100.00;98502.25;4997951;28;20042;-85
2023/03/09 03:11:32;;;;;;;12.48;7.80;;;;;;;-1.12;100.00;98497.97;5013940;28;20457;-76
2023/03/09 03:14:01;;;;;;;13.82;8.27;;;;;;;-1.10;100.00;98506.53;5002629;28;20485;-76
2023/03/09 03:16:27;;;;;;;14.35;9.30;;;;;;;-1.10;100.00;98510.81;5010957;28;20038;-79
2023/03/09 03:18:54;;;;;;;12.25;8.70;;;;;;;-1.09;100.00;98530.53;4995308;28;20046;-81
2023/03/09 03:21:20;;;;;;;14.50;8.45;;;;;;;-1.11;100.00;98532.22;4992771;28;20037;-79
2023/03/09 03:23:47;;;;;;;12.88;8.32;;;;;;;-1.09;100.00;98551.91;4977759;28;20042;-81
2023/03/09 03:26:13;;;;;;;16.85;9.60;;;;;;;-1.09;100.00;98549.34;4999691;28;20034;-77
2023/03/09 03:28:40;;;;;;;16.90;9.93;;;;;;;-1.09;100.00;98563.91;5001041;28;20500;-87
2023/03/09 03:31:06;;;;;;;14.45;9.10;;;;;;;-1.10;100.00;98575.00;5006728;28;20045;-84
2023/03/09 03:33:34;;;;;;;16.75;9.02;;;;;;;-1.11;100.00;98581.00;5005413;28;20041;-77
2023/03/09 03:36:00;;;;;;;15.30;8.60;;;;;;;-1.10;100.00;98585.28;5000877;28;20054;-77
2023/03/09 03:38:27;;;;;;;16.40;9.43;;;;;;;-1.10;100.00;98588.69;5015090;28;20046;-82
2023/03/09 03:40:53;;;;;;;13.48;8.98;;;;;;;-1.10;100.00;98580.16;5000530;28;20046;-76
2023/03/09 03:43:20;;;;;;;17.80;10.05;;;;;;;-1.08;100.00;98588.69;5017604;28;20046;-77
2023/03/09 03:45:46;;;;;;;19.08;10.05;;;;;;;-1.09;100.00;98598.13;5000715;28;20045;-83
2023/03/09 03:48:13;;;;;;;16.23;9.93;;;;;;;-1.09;100.00;98592.16;5001633;28;20076;-83
2023/03/09 03:50:39;;;;;;;16.67;9.25;;;;;;;-1.07;100.00;98596.44;4999477;28;20038;-86
2023/03/09 03:53:06;;;;;;;17.92;10.35;;;;;;;-1.05;100.00;98594.72;5011333;28;20048;-81
2023/03/09 03:55:33;;;;;;;16.77;9.85;;;;;;;-1.06;100.00;98597.28;5001706;28;20462;-79
2023/03/09 03:58:00;;;;;;;20.13;10.75;;;;;;;-1.05;100.00;98592.16;4993992;28;20053;-76
2023/03/09 04:00:26;;;;;;;25.42;11.32;;;;;;;-1.06;100.00;98595.56;4989731;28;20065;-76
2023/03/09 04:02:53;;;;;;;20.00;10.80;;;;;;;-1.06;100.00;98605.84;5011134;28;20042;-77
2023/03/09 04:05:19;;;;;;;19.45;10.85;;;;;;;-1.05;100.00;98602.41;4992339;28;20045;-79
2023/03/09 04:07:47;;;;;;;19.05;10.65;;;;;;;-1.04;100.00;98608.44;4990936;28;20049;-78
2023/03/09 04:10:13;;;;;;;19.13;10.50;;;;;;;-1.05;100.00;98615.25;4997393;28;20128;-76
2023/03/09 04:12:40;;;;;;;19.38;10.15;;;;;;;-1.01;100.00;98623.84;5010307;28;20042;-82
2023/03/09 04:15:10;;;;;;;19.65;10.73;;;;;;;-1.01;100.00;98622.13;4986700;28;20568;-81
2023/03/09 04:17:36;;;;;;;22.92;11.77;;;;;;;-0.98;100.00;98618.72;4991474;28;20065;-85
2023/03/09 04:20:04;;;;;;;21.55;11.43;;;;;;;-0.98;100.00;98618.72;4993084;28;20038;-76
2023/03/09 04:22:31;;;;;;;20.45;10.95;;;;;;;-0.97;100.00;98624.72;4993310;28;20050;-80
2023/03/09 04:24:57;;;;;;;22.77;11.88;;;;;;;-0.96;100.00;98627.28;5005138;28;20404;-76
2023/03/09 04:27:24;;;;;;;21.38;11.93;;;;;;;-0.97;100.00;98637.56;4976506;28;20058;-83
2023/03/09 04:29:50;;;;;;;23.38;11.98;;;;;;;-0.96;100.00;98652.13;5009143;28;20064;-76
2023/03/09 04:32:17;;;;;;;19.42;11.60;;;;;;;-0.95;100.00;98657.28;4980198;28;20103;-76
2023/03/09 04:34:43;;;;;;;20.98;11.93;;;;;;;-0.92;100.00;98659.00;5013281;28;20121;-76
2023/03/09 04:37:12;;;;;;;22.77;12.77;;;;;;;-0.94;100.00;98656.44;4990514;28;20477;-77
2023/03/09 04:39:40;;;;;;;22.92;12.07;;;;;;;-0.95;100.00;98670.13;5012006;28;20045;-78
2023/03/09 04:42:06;;;;;;;25.58;12.88;;;;;;;-0.94;100.00;98668.38;4993966;28;20033;-78
2023/03/09 04:44:33;;;;;;;22.45;12.45;;;;;;;-0.94;100.00;98673.53;4995188;28;20062;-77
2023/03/09 04:46:59;;;;;;;21.08;11.75;;;;;;;-0.96;100.00;98672.69;4976658;28;20482;-75
2023/03/09 04:49:29;;;;;;;24.83;12.18;;;;;;;-0.96;100.00;98662.41;5008779;28;20054;-77
2023/03/09 04:51:56;;;;;;;20.75;12.52;;;;;;;-0.98;100.00;98664.09;5009129;28;20041;-87
2023/03/09 04:54:22;;;;;;;25.58;14.43;;;;;;;-1.00;100.00;98662.38;4990565;28;20064;-82
2023/03/09 04:56:50;;;;;;;22.45;12.95;;;;;;;-0.99;100.00;98665.81;4992166;28;20042;-77
2023/03/09 04:59:17;;;;;;;27.02;13.13;;;;;;;-1.04;100.00;98657.22;4989290;28;20049;-77
2023/03/09 05:01:43;;;;;;;22.48;12.23;;;;;;;-1.04;100.00;98665.78;4991906;28;20038;-77
2023/03/09 05:04:10;;;;;;;26.52;12.82;;;;;;;-1.05;100.00;98670.91;4994697;28;20605;-76
2023/03/09 05:06:37;;;;;;;22.35;11.50;;;;;;;-1.03;100.00;98669.19;5008705;28;20044;-76
2023/03/09 05:09:05;;;;;;;25.90;12.73;;;;;;;-1.02;100.00;98674.38;4971301;28;20053;-86
2023/03/09 05:11:33;;;;;;;25.83;13.20;;;;;;;-1.03;100.00;98679.47;4986602;28;20042;-79
2023/03/09 05:13:59;;;;;;;28.23;13.70;;;;;;;-1.02;100.00;98676.06;4989472;28;20129;-76
2023/03/09 05:16:27;;;;;;;24.70;12.27;;;;;;;-1.02;100.00;98682.06;4990767;28;20057;-90
2023/03/09 05:18:54;;;;;;;22.02;12.43;;;;;;;-1.02;100.00;98679.50;4989672;28;20049;-75
2023/03/09 05:21:23;;;;;;;25.25;13.50;;;;;;;-1.00;100.00;98682.06;4991146;28;20050;-80
2023/03/09 05:23:49;;;;;;;26.38;13.20;;;;;;;-1.00;100.00;98695.75;4984875;28;20044;-77
2023/03/09 05:26:16;;;;;;;23.08;13.15;;;;;;;-0.99;100.00;98699.19;4990599;28;20057;-76
2023/03/09 05:28:43;;;;;;;21.48;12.40;;;;;;;-1.00;100.00;98707.75;5000982;28;20057;-78
2023/03/09 05:31:12;;;;;;;23.52;13.05;;;;;;;-0.98;100.00;98707.75;5006639;28;20050;-76
2023/03/09 05:33:39;;;;;;;27.00;13.82;;;;;;;-0.96;100.00;98712.06;4993662;28;20107;-78
2023/03/09 05:36:25;;;;;;;23.42;12.60;;;;;;;-0.96;100.00;98711.19;4989968;28;20073;-80
2023/03/09 05:38:53;;;;;;;23.73;12.85;;;;;;;-0.96;100.00;98724.91;5008730;28;20042;-76
2023/03/09 05:41:34;;;;;;;22.27;12.70;;;;;;;-0.95;100.00;98734.31;4979580;28;20046;-76
2023/03/09 05:44:02;;;;;;;27.48;10.68;;;;;;;-0.94;100.00;98745.44;5006616;28;20050;-80
2023/03/09 05:46:31;;;;;;;24.65;13.18;;;;;;;-0.95;100.00;98738.59;5005057;28;20142;-78
2023/03/09 05:48:57;;;;;;;23.83;12.75;;;;;;;-0.94;100.00;98754.03;4971244;28;20058;-83
2023/03/09 05:51:24;;;;;;;23.25;13.27;;;;;;;-0.92;100.00;98749.75;4991236;28;20052;-84
2023/03/09 05:53:50;;;;;;;26.15;13.27;;;;;;;-0.90;100.00;98749.75;4989618;28;20276;-80
2023/03/09 05:56:19;;;;;;;24.10;12.27;;;;;;;-0.90;100.00;98748.06;4992762;28;20052;-83
2023/03/09 05:58:51;;;;;;;26.17;13.27;;;;;;;-0.91;100.00;98754.03;4990977;28;20050;-78
2023/03/09 06:01:50;;;;;;;;;;;;;;;;;;;;;
2023/03/09 06:04:22;;;;;;;25.40;12.73;;;;;;;-0.86;100.00;98765.19;4987430;28;20507;-80
2023/03/09 06:06:50;;;;;;;22.73;12.05;;;;;;;-0.85;100.00;98763.47;5005936;28;20049;-81
2023/03/09 06:09:29;;;;;;;19.88;12.20;;;;;;;-0.83;100.00;98774.63;4987137;28;20050;-79
2023/03/09 06:11:56;;;;;;;27.27;14.02;;;;;;;-0.81;100.00;98766.94;4992831;28;20034;-76
2023/03/09 06:14:25;;;;;;;21.40;10.77;;;;;;;-0.80;100.00;98769.50;4975924;28;20062;-79
2023/03/09 06:16:52;;;;;;;22.98;12.70;;;;;;;-0.79;100.00;98765.25;5006978;28;20052;-78
2023/03/09 06:19:18;;;;;;;23.60;12.48;;;;;;;-0.77;100.00;98771.25;4988711;28;20046;-78
2023/03/09 06:21:45;;;;;;;23.13;12.93;;;;;;;-0.76;100.00;98776.38;5001995;28;20236;-81
2023/03/09 06:24:11;;;;;;;22.33;11.52;;;;;;;-0.79;100.00;98778.94;5005830;28;20468;-77
2023/03/09 06:26:38;;;;;;;20.10;11.70;;;;;;;-0.79;100.00;98778.94;5008938;28;20038;-81
2023/03/09 06:29:04;;;;;;;22.80;11.48;;;;;;;-0.78;100.00;98774.66;5006792;28;20050;-80
2023/03/09 06:31:32;;;;;;;20.33;10.60;;;;;;;-0.77;100.00;98774.69;4999443;28;20124;-76
2023/03/09 06:34:02;;;;;;;21.02;12.60;;;;;;;-0.73;100.00;98776.41;4992509;28;20046;-77
2023/03/09 06:36:29;;;;;;;25.80;13.30;;;;;;;-0.68;100.00;98781.56;5007034;28;20041;-81
2023/03/09 06:38:55;;;;;;;16.40;10.43;;;;;;;-0.66;100.00;98785.03;4992419;28;20046;-77
2023/03/09 06:41:29;;;;;;;18.95;11.20;;;;;;;-0.62;100.00;98784.19;4995367;28;20128;-79
2023/03/09 06:43:56;;;;;;;20.42;12.10;;;;;;;-0.58;100.00;98783.34;4993798;28;20088;-79
2023/03/09 06:46:23;;;;;;;16.70;9.40;;;;;;;-0.58;100.00;98785.91;4991270;28;20050;-78
2023/03/09 06:48:49;;;;;;;18.38;10.00;;;;;;;-0.59;100.00;98784.19;4994309;28;20030;-79
2023/03/09 06:51:17;;;;;;;17.10;10.25;;;;;;;-0.57;100.00;98794.50;4979968;28;20046;-76
2023/03/09 06:53:44;;;;;;;16.40;11.02;;;;;;;-0.54;100.00;98797.94;4995858;28;20041;-77
2023/03/09 06:56:10;;;;;;;19.95;10.48;;;;;;;-0.50;100.00;98803.97;5015773;28;20037;-79
2023/03/09 06:58:37;;;;;;;18.13;10.18;;;;;;;-0.47;100.00;98822.00;4993537;28;20041;-81
2023/03/09 07:01:09;;;;;;;19.45;10.30;;;;;;;-0.43;100.00;98831.44;4994621;28;20117;-78
2023/03/09 07:03:36;;;;;;;15.75;9.27;;;;;;;-0.40;100.00;98835.72;4994625;28;20042;-77
2023/03/09 07:06:02;;;;;;;19.38;10.13;;;;;;;-0.36;100.00;98832.31;4976143;28;20068;-76
2023/03/09 07:08:29;;;;;;;17.60;10.35;;;;;;;-0.33;100.00;98829.75;4993519;28;20060;-83
2023/03/09 07:10:55;;;;;;;16.90;10.50;;;;;;;-0.31;100.00;98845.19;4990743;28;20042;-82
2023/03/09 07:13:22;;;;;;;18.48;10.40;;;;;;;-0.32;100.00;98851.22;4990837;28;20046;-77
2023/03/09 07:15:49;;;;;;;16.27;9.15;;;;;;;-0.32;100.00;98852.06;5006887;28;20052;-82
2023/03/09 07:18:15;;;;;;;18.45;10.65;;;;;;;-0.29;100.00;98858.94;5007181;28;20508;-80
2023/03/09 07:20:42;;;;;;;16.90;9.68;;;;;;;-0.26;100.00;98858.94;5009997;28;20117;-76
2023/03/09 07:23:11;;;;;;;17.75;10.00;;;;;;;-0.26;100.00;98872.66;4991988;28;20473;-76
2023/03/09 07:25:39;;;;;;;17.05;9.68;;;;;;;-0.25;100.00;98881.22;4995625;28;20665;-82
2023/03/09 07:28:08;;;;;;;20.98;10.70;;;;;;;-0.26;100.00;98892.38;4994843;28;20563;-81
2023/03/09 07:30:34;;;;;;;18.85;10.07;;;;;;;-0.25;100.00;98899.22;5012348;28;20038;-76
2023/03/09 07:33:01;;;;;;;16.75;9.57;;;;;;;-0.24;100.00;98908.66;4994834;28;20401;-75
2023/03/09 07:35:34;;;;;;;16.95;10.48;;;;;;;-0.23;100.00;98915.53;4992097;28;20704;-82
2023/03/09 07:38:01;;;;;;;30.08;17.13;;;;;;;-0.23;100.00;98913.81;4991631;28;20048;-76
2023/03/09 07:40:27;;;;;;;16.75;10.05;;;;;;;-0.20;100.00;98925.84;5013105;28;20408;-76
2023/03/09 07:42:54;;;;;;;13.85;8.73;;;;;;;-0.21;100.00;98922.41;4990634;28;20053;-80
2023/03/09 07:45:22;;;;;;;15.50;9.90;;;;;;;-0.19;100.00;98919.84;4996110;28;20055;-77
2023/03/09 07:47:48;;;;;;;14.10;9.20;;;;;;;-0.14;100.00;98918.16;4994204;28;20042;-79
2023/03/09 07:50:15;;;;;;;15.45;9.77;;;;;;;-0.09;100.00;98916.50;4992321;28;20054;-76
2023/03/09 07:52:43;;;;;;;19.15;10.25;;;;;;;-0.03;100.00;98915.66;4978573;28;20088;-78
2023/03/09 07:55:11;;;;;;;19.67;10.05;;;;;;;-0.01;100.00;98919.97;4994350;28;20038;-77
2023/03/09 07:57:39;;;;;;;16.73;10.30;;;;;;;-0.01;100.00;98917.38;4995588;28;20066;-77
2023/03/09 08:00:12;;;;;;;16.73;10.27;;;;;;;-0.01;100.00;98922.53;5012266;28;20041;-88
2023/03/09 08:02:42;;;;;;;16.85;10.68;;;;;;;0.02;100.00;98923.41;5008863;28;20041;-76
2023/03/09 08:05:11;;;;;;;16.88;9.65;;;;;;;0.02;100.00;98925.97;4995583;28;20655;-76
2023/03/09 08:07:37;;;;;;;18.02;11.13;;;;;;;0.06;100.00;98927.72;4994769;28;20048;-80
2023/03/09 08:10:07;;;;;;;15.70;9.27;;;;;;;0.05;100.00;98924.25;5010559;28;20046;-79
2023/03/09 08:12:34;;;;;;;13.77;9.07;;;;;;;0.08;100.00;98931.13;4988241;28;20039;-79
2023/03/09 08:15:00;;;;;;;15.52;8.98;;;;;;;0.07;100.00;98940.59;5005027;28;20061;-77
2023/03/09 08:17:27;;;;;;;15.45;8.75;;;;;;;0.11;100.00;98951.75;5005742;28;20056;-76
2023/03/09 08:19:54;;;;;;;15.02;9.45;;;;;;;0.12;100.00;98956.06;4990406;28;20489;-83
2023/03/09 08:22:21;;;;;;;17.48;10.50;;;;;;;0.11;100.00;98959.47;5006087;28;20042;-77
2023/03/09 08:24:48;;;;;;;17.45;10.50;;;;;;;0.08;100.00;98965.47;4977514;28;20112;-79
2023/03/09 08:27:14;;;;;;;18.30;10.30;;;;;;;0.10;100.00;98968.03;5005469;28;20042;-76
2023/03/09 08:29:41;;;;;;;17.10;10.30;;;;;;;0.13;100.00;98970.63;5008360;28;20045;-77
2023/03/09 08:32:09;;;;;;;17.13;10.18;;;;;;;0.11;100.00;98982.63;4992791;28;20484;-75
2023/03/09 08:34:37;;;;;;;18.80;10.23;;;;;;;0.11;100.00;98982.63;5009764;28;20544;-76
2023/03/09 08:37:03;;;;;;;19.75;11.10;;;;;;;0.15;100.00;98979.22;5013146;28;20117;-76
2023/03/09 08:39:30;;;;;;;20.35;11.77;;;;;;;0.18;100.00;98976.66;5005945;28;20038;-76
2023/03/09 08:41:56;;;;;;;20.02;10.60;;;;;;;0.25;100.00;98977.56;5009346;28;20129;-77
2023/03/09 08:44:23;;;;;;;19.52;10.38;;;;;;;0.26;100.00;98971.56;5008653;28;20046;-89
2023/03/09 08:46:49;;;;;;;18.70;10.25;;;;;;;0.31;100.00;98978.47;4995036;28;20503;-79
2023/03/09 08:49:16;;;;;;;15.65;10.05;;;;;;;0.36;100.00;98981.06;4990632;28;20047;-76
2023/03/09 08:51:42;;;;;;;17.02;10.27;;;;;;;0.46;100.00;98984.56;4992003;28;20604;-76
2023/03/09 08:54:09;;;;;;;14.65;9.88;;;;;;;0.54;100.00;98988.00;4991314;28;20049;-78
2023/03/09 08:56:35;;;;;;;18.67;11.52;;;;;;;0.55;100.00;98983.72;5008277;28;20038;-80
2023/03/09 08:59:02;;;;;;;18.60;10.73;;;;;;;0.55;100.00;98984.59;5010691;28;20137;-77
2023/03/09 09:01:28;;;;;;;16.25;10.00;;;;;;;0.63;100.00;99002.66;4990348;28;20038;-76
2023/03/09 09:03:55;;;;;;;21.52;10.82;;;;;;;0.68;100.00;99002.66;5008041;28;20096;-77
2023/03/09 09:06:21;;;;;;;15.25;8.85;;;;;;;0.68;100.00;99012.97;4988044;28;20049;-76
2023/03/09 09:08:48;;;;;;;17.80;9.95;;;;;;;0.69;100.00;99007.81;5005387;28;20053;-78
2023/03/09 09:11:17;;;;;;;16.77;9.68;;;;;;;0.69;100.00;99012.13;4989424;28;20045;-78
2023/03/09 09:13:44;;;;;;;16.08;9.32;;;;;;;0.74;100.00;99013.84;4991328;28;20057;-79
2023/03/09 09:16:13;;;;;;;15.35;9.68;;;;;;;0.76;100.00;99014.72;4977438;28;20042;-76
2023/03/09 09:18:40;;;;;;;12.93;8.55;;;;;;;0.75;100.00;99007.00;5010223;28;20037;-77
2023/03/09 09:21:10;;;;;;;17.70;9.70;;;;;;;0.84;100.00;99022.47;4992457;28;20548;-81
2023/03/09 09:23:37;;;;;;;16.42;9.45;;;;;;;0.79;100.00;99019.03;5010155;28;20121;-81
2023/03/09 09:26:05;;;;;;;15.70;9.05;;;;;;;0.82;100.00;99019.91;5008374;28;20443;-78
2023/03/09 09:28:32;;;;;;;16.23;10.25;;;;;;;0.83;100.00;99018.19;5007486;28;20045;-77
2023/03/09 09:31:01;;;;;;;15.65;10.13;;;;;;;0.84;100.00;99019.91;4989193;28;20042;-80
2023/03/09 09:33:29;;;;;;;19.42;11.15;;;;;;;0.89;100.00;99027.66;4989945;28;20054;-76
2023/03/09 09:36:09;;;;;;;21.85;11.82;;;;;;;0.92;100.00;99023.38;4990725;28;20045;-77
2023/03/09 09:42:42;;;;;;;;;;;;;;;0.99;100.00;99040.59;4991620;28;20380;-78
2023/03/09 09:45:29;;;;;;;16.58;10.15;;;;;;;1.06;100.00;99046.63;5007743;28;19926;-76
2023/03/09 09:47:58;;;;;;;18.05;9.60;;;;;;;1.17;100.00;99049.22;5009567;28;20037;-76
2023/03/09 09:50:59;;;;;;;18.27;10.77;;;;;;;1.24;100.00;99043.25;4996528;28;20049;-82
2023/03/09 09:53:53;;;;;;;18.73;11.13;;;;;;;1.35;100.00;99040.69;5002905;28;20046;-78
2023/03/09 09:56:27;;;;;;;17.23;9.88;;;;;;;1.40;100.00;99038.13;4995260;28;20049;-80
2023/03/09 09:59:03;;;;;;;12.05;8.52;;;;;;;1.40;100.00;99043.28;4974470;28;20388;-83
2023/03/09 10:01:48;;;;;;;18.15;11.32;;;;;;;1.44;100.00;99051.00;5004295;28;20049;-77
2023/03/09 10:04:24;;;;;;;19.48;10.57;;;;;;;1.55;100.00;99061.38;5006087;28;20120;-76
2023/03/09 10:06:53;;;;;;;19.33;11.70;;;;;;;1.60;100.00;99056.22;5000591;28;20491;-78
2023/03/09 10:09:27;;;;;;;23.77;12.25;;;;;;;1.65;100.00;99057.91;4992252;28;20045;-76
2023/03/09 10:11:58;;;;;;;23.08;12.20;;;;;;;1.62;100.00;99073.41;4989134;28;20399;-77
2023/03/09 10:14:43;;;;;;;23.10;11.77;;;;;;;1.60;100.00;99075.13;4989168;28;20137;-78
2023/03/09 10:17:30;;;;;;;18.90;10.48;;;;;;;1.47;100.00;99066.50;4983856;28;20046;-77
2023/03/09 10:20:01;;;;;;;20.55;10.05;;;;;;;1.47;100.00;99069.09;5007032;28;20085;-79
2023/03/09 10:22:28;;;;;;;19.88;11.05;;;;;;;1.49;100.00;99077.66;5004582;28;20049;-79
2023/03/09 10:24:56;;;;;;;21.13;12.25;;;;;;;1.53;100.00;99077.69;4991237;28;20133;-78
2023/03/09 10:27:38;;;;;;;25.42;14.32;;;;;;;1.63;100.00;99082.00;4990200;28;20137;-79
2023/03/09 10:30:10;;;;;;;30.42;12.93;;;;;;;1.67;100.00;99081.16;5006804;28;20093;-78
2023/03/09 10:32:48;;;;;;;26.75;12.50;;;;;;;1.77;100.00;99084.59;5005066;28;20057;-77
2023/03/09 10:35:46;;;;;;;20.20;11.35;;;;;;;1.81;100.00;99089.78;4992786;28;20035;-76
2023/03/09 10:38:18;;;;;;;26.60;12.20;;;;;;;1.79;100.00;99075.16;4992357;28;20038;-82
2023/03/09 10:40:47;;;;;;;21.35;11.40;;;;;;;1.85;100.00;99076.88;4994246;28;20049;-81
2023/03/09 10:43:34;;;;;;;23.25;11.50;;;;;;;1.86;100.00;99079.44;5009863;28;20041;-76
2023/03/09 10:46:23;;;;;;;22.40;11.88;;;;;;;1.79;100.00;99077.75;4988820;28;20104;-77
2023/03/09 10:49:09;;;;;;;22.00;10.95;;;;;;;1.83;100.00;99086.34;4994256;28;20045;-83
2023/03/09 10:51:40;;;;;;;27.90;13.40;;;;;;;1.88;100.00;99085.50;5008924;28;20264;-77
2023/03/09 10:54:40;;;;;;;23.63;12.35;;;;;;;1.86;100.00;99094.09;4995358;28;20278;-77
2023/03/09 10:57:37;;;;;;;28.60;14.48;;;;;;;1.86;100.00;99097.50;5004002;28;20042;-76
2023/03/09 11:00:11;;;;;;;23.58;12.60;;;;;;;1.94;100.00;99098.41;5011477;28;20042;-77
2023/03/09 11:02:37;;;;;;;19.70;10.82;;;;;;;1.96;100.00;99094.09;5010106;28;20058;-79
2023/03/09 11:05:20;;;;;;;25.15;11.43;;;;;;;1.97;100.00;99107.88;5010027;28;20054;-76
2023/03/09 11:07:58;;;;;;;24.27;13.00;;;;;;;1.94;100.00;99113.00;4993917;28;20427;-77
2023/03/09 11:10:34;;;;;;;24.95;13.00;;;;;;;1.77;100.00;99118.16;4986693;28;20073;-80
2023/03/09 11:13:02;;;;;;;24.67;13.45;;;;;;;1.75;100.00;99132.78;4991634;28;20045;-79
2023/03/09 11:15:32;;;;;;;24.95;12.30;;;;;;;1.72;100.00;99131.06;4995791;28;20042;-79
2023/03/09 11:18:02;;;;;;;30.25;13.23;;;;;;;1.75;100.00;99131.03;4992273;28;20046;-77
2023/03/09 11:20:35;;;;;;;23.48;13.05;;;;;;;1.73;100.00;99130.16;5006227;28;20068;-76
2023/03/09 11:23:29;;;;;;;24.20;13.68;;;;;;;1.70;100.00;99137.91;5004824;28;20041;-79
2023/03/09 11:26:13;;;;;;;23.25;12.10;;;;;;;1.63;100.00;99142.19;4987480;28;20104;-79
2023/03/09 11:29:06;;;;;;;25.92;15.18;;;;;;;1.62;100.00;99144.78;4985464;28;20644;-79
2023/03/09 11:31:39;;;;;;;22.58;11.43;;;;;;;1.61;100.00;99138.75;4992714;28;20034;-86
2023/03/09 11:34:36;;;;;;;25.98;11.85;;;;;;;1.63;100.00;99142.19;5012782;28;20057;-90
2023/03/09 11:37:19;;;;;;;27.55;13.50;;;;;;;1.61;100.00;99151.63;4988585;28;20042;-78
2023/03/09 11:39:54;;;;;;;27.65;13.43;;;;;;;1.62;100.00;99155.09;4995615;28;20049;-78
2023/03/09 11:42:38;;;;;;;30.70;14.85;;;;;;;1.62;100.00;99150.78;5008538;28;20129;-78